Time;durP1;ratioP1;P1;durP2;ratioP2;P2;SDS_P1;SDS_P2;PMS_P1;PMS_P2;Temp;Humidity;BMP_temperature;BMP_pressure;BME280_temperature;BME280_humidity;BME280_pressure;Samples;Min_cycle;Max_cycle;Signal;HPM_P1;HPM_P2
2023/06/10 00:01:17;;;;;;;;;;;;;;;22.09;47.88;101349.59;4944667;28;19929;-69
2023/06/10 00:03:43;;;;;;;;;;;;;;;22.12;48.01;101357.22;4947326;28;19923;-69
2023/06/10 00:06:08;;;;;;;;;;;;;;;22.10;47.66;101360.16;4947613;28;19919;-69
2023/06/10 00:08:33;;;;;;;;;;;;;;;22.08;47.78;101359.59;4947728;28;19919;-69
2023/06/10 00:10:58;;;;;;;;;;;;;;;22.05;48.22;101356.53;4950142;28;19926;-69
2023/06/10 00:13:24;;;;;;;;;;;;;;;22.03;48.31;101353.19;4943032;28;19922;-69
2023/06/10 00:15:49;;;;;;;;;;;;;;;21.98;48.73;101356.59;4942389;28;20005;-69
2023/06/10 00:18:14;;;;;;;;;;;;;;;21.93;48.62;101362.69;4938500;28;20468;-69
2023/06/10 00:20:39;;;;;;;;;;;;;;;21.91;48.52;101354.00;4941460;28;19930;-69
2023/06/10 00:23:06;;;;;;;;;;;;;;;21.89;48.86;101352.56;4942158;28;20357;-69
2023/06/10 00:25:32;;;;;;;;;;;;;;;21.85;48.80;101360.34;4941570;28;20352;-68
2023/06/10 00:27:58;;;;;;;;;;;;;;;21.82;49.08;101358.09;4948982;28;20315;-69
2023/06/10 00:30:23;;;;;;;;;;;;;;;21.79;48.99;101357.75;4943983;28;19922;-68
2023/06/10 00:32:48;;;;;;;;;;;;;;;21.77;48.93;101362.56;4947176;28;19987;-69
2023/06/10 00:35:13;;;;;;;;;;;;;;;21.74;48.96;101358.44;4946828;28;19918;-69
2023/06/10 00:37:38;;;;;;;;;;;;;;;21.72;48.97;101359.72;4944472;28;19954;-69
2023/06/10 00:40:04;;;;;;;;;;;;;;;21.70;49.22;101359.97;4948396;28;20372;-69
2023/06/10 00:42:29;;;;;;;;;;;;;;;21.67;49.39;101363.09;4944716;28;19981;-69
2023/06/10 00:44:55;;;;;;;;;;;;;;;21.65;49.63;101365.22;4940757;28;19958;-69
2023/06/10 00:47:20;;;;;;;;;;;;;;;21.62;49.71;101369.22;4943630;28;20501;-69
2023/06/10 00:49:46;;;;;;;;;;;;;;;21.58;49.92;101367.19;4942479;28;19922;-69
2023/06/10 00:52:11;;;;;;;;;;;;;;;21.54;50.24;101366.00;4946705;28;19936;-68
2023/06/10 00:54:37;;;;;;;;;;;;;;;21.49;50.28;101364.00;4946432;28;19934;-69
2023/06/10 00:57:02;;;;;;;;;;;;;;;21.47;50.23;101368.81;4942882;28;19918;-69
2023/06/10 00:59:28;;;;;;;;;;;;;;;21.44;50.33;101369.28;4946501;28;19969;-69
2023/06/10 01:01:55;;;;;;;;;;;;;;;21.40;50.26;101367.28;4942300;28;19932;-69
2023/06/10 01:04:21;;;;;;;;;;;;;;;21.35;50.46;101365.22;4942411;28;20392;-69
2023/06/10 01:06:57;;;;;;;;;;;;;;;21.28;50.78;101369.91;4942610;28;19922;-69
2023/06/10 01:09:41;;;;;;;;;;;;;;;21.24;51.19;101366.03;4943410;28;19922;-69
2023/06/10 01:12:08;;;;;;;;;;;;;;;21.20;51.09;101362.91;4941321;28;19919;-68
2023/06/10 01:14:34;;;;;;;;;;;;;;;21.17;51.58;101373.34;4943127;28;19926;-69
2023/06/10 01:17:00;;;;;;;;;;;;;;;21.12;51.63;101371.34;4947659;28;19973;-68
2023/06/10 01:19:25;;;;;;;;;;;;;;;21.08;51.70;101370.13;4943457;28;19918;-69
2023/06/10 01:21:51;;;;;;;;;;;;;;;21.02;51.93;101374.56;4945406;28;20402;-69
2023/06/10 01:24:18;;;;;;;;;;;;;;;20.97;52.33;101379.81;4948814;28;19926;-69
2023/06/10 01:26:44;;;;;;;;;;;;;;;20.91;52.50;101377.22;4941733;28;19994;-68
2023/06/10 01:29:21;;;;;;;;;;;;;;;20.87;52.68;101376.00;4939950;28;19958;-69
2023/06/10 01:31:51;;;;;;;;;;;;;;;20.82;52.88;101378.56;4941146;28;19965;-69
2023/06/10 01:34:17;;;;;;;;;;;;;;;20.76;52.84;101371.34;4947791;28;20006;-69
2023/06/10 01:36:45;;;;;;;;;;;;;;;20.71;53.00;101378.25;4949729;28;20005;-68
2023/06/10 01:39:11;;;;;;;;;;;;;;;20.66;53.00;101382.66;4945666;28;19965;-68
2023/06/10 01:41:37;;;;;;;;;;;;;;;20.62;53.07;101379.59;4946857;28;19926;-68
2023/06/10 01:44:02;;;;;;;;;;;;;;;20.58;53.23;101385.66;4945507;28;20328;-69
2023/06/10 01:46:27;;;;;;;;;;;;;;;20.54;53.75;101379.91;4947712;28;19969;-68
2023/06/10 01:48:53;;;;;;;;;;;;;;;20.51;53.73;101374.91;4941738;28;20013;-68
2023/06/10 01:51:18;;;;;;;;;;;;;;;20.48;54.34;101377.25;4949160;28;19929;-68
2023/06/10 01:53:43;;;;;;;;;;;;;;;20.44;54.56;101379.56;4942682;28;19924;-68
2023/06/10 01:56:08;;;;;;;;;;;;;;;20.41;54.39;101383.53;4947315;28;20367;-68
2023/06/10 01:58:34;;;;;;;;;;;;;;;20.37;54.96;101378.78;4948729;28;19949;-68
2023/06/10 02:00:59;;;;;;;;;;;;;;;20.33;54.76;101391.06;4946604;28;19926;-68
2023/06/10 02:03:24;;;;;;;;;;;;;;;20.30;54.94;101381.53;4952349;28;19922;-68
2023/06/10 02:05:49;;;;;;;;;;;;;;;20.28;55.01;101380.13;4947953;28;20463;-69
2023/06/10 02:08:14;;;;;;;;;;;;;;;20.25;55.18;101385.97;4944644;28;19918;-68
2023/06/10 02:10:40;;;;;;;;;;;;;;;20.21;55.15;101373.94;4951237;28;19978;-68
2023/06/10 02:13:06;;;;;;;;;;;;;;;20.16;55.68;101381.88;4941016;28;19919;-68
2023/06/10 02:15:31;;;;;;;;;;;;;;;20.13;54.85;101382.31;4948841;28;19962;-68
2023/06/10 02:17:56;;;;;;;;;;;;;;;20.07;55.57;101390.25;4949838;28;19924;-69
2023/06/10 02:20:21;;;;;;;;;;;;;;;20.03;55.72;101388.22;4952104;28;19923;-68
2023/06/10 02:22:47;;;;;;;;;;;;;;;19.99;55.91;101384.31;4955213;28;19918;-68
2023/06/10 02:25:12;;;;;;;;;;;;;;;19.95;55.79;101388.44;4963973;28;19993;-68
2023/06/10 02:27:37;;;;;;;;;;;;;;;19.93;56.02;101387.84;4957063;28;20013;-68
2023/06/10 02:30:02;;;;;;;;;;;;;;;19.91;56.08;101392.63;4943570;28;20536;-68
2023/06/10 02:32:28;;;;;;;;;;;;;;;19.87;56.31;101389.56;4951508;28;19922;-68
2023/06/10 02:34:53;;;;;;;;;;;;;;;19.81;56.74;101393.13;4951073;28;20013;-68
2023/06/10 02:37:18;;;;;;;;;;;;;;;19.77;56.69;101392.75;4950901;28;19910;-68
2023/06/10 02:39:44;;;;;;;;;;;;;;;19.75;56.94;101392.13;4943251;28;19925;-68
2023/06/10 02:42:10;;;;;;;;;;;;;;;19.73;56.87;101396.91;4948827;28;19945;-68
2023/06/10 02:44:35;;;;;;;;;;;;;;;19.70;56.78;101399.22;4949773;28;19918;-68
2023/06/10 02:47:00;;;;;;;;;;;;;;;19.69;56.91;101397.56;4946610;28;20053;-68
2023/06/10 02:49:28;;;;;;;;;;;;;;;19.67;57.09;101395.09;4940916;28;19979;-68
2023/06/10 02:51:53;;;;;;;;;;;;;;;19.65;57.28;101390.94;4951330;28;20211;-68
2023/06/10 02:54:19;;;;;;;;;;;;;;;19.63;57.63;101398.41;4950787;28;20596;-68
2023/06/10 02:56:45;;;;;;;;;;;;;;;19.61;57.52;101389.72;4945075;28;20427;-68
2023/06/10 02:59:10;;;;;;;;;;;;;;;19.60;57.87;101393.47;4948551;28;19942;-68
2023/06/10 03:01:37;;;;;;;;;;;;;;;19.56;57.54;101392.25;4944650;28;20301;-68
2023/06/10 03:04:03;;;;;;;;;;;;;;;19.53;57.99;101398.03;4946209;28;19915;-68
2023/06/10 03:06:29;;;;;;;;;;;;;;;19.48;58.03;101393.31;4942859;28;19919;-68
2023/06/10 03:08:54;;;;;;;;;;;;;;;19.48;57.84;101401.38;4947173;28;19945;-68
2023/06/10 03:11:20;;;;;;;;;;;;;;;19.46;57.78;101393.53;4946692;28;20397;-68
2023/06/10 03:13:45;;;;;;;;;;;;;;;19.45;58.15;101393.75;4957370;28;19981;-69
2023/06/10 03:16:12;;;;;;;;;;;;;;;19.45;57.84;101399.13;4956302;28;20020;-68
2023/06/10 03:18:37;;;;;;;;;;;;;;;19.44;58.02;101400.16;4944277;28;19970;-68
2023/06/10 03:21:02;;;;;;;;;;;;;;;19.45;57.83;101410.72;4943693;28;19961;-68
2023/06/10 03:23:28;;;;;;;;;;;;;;;19.43;57.84;101407.44;4946012;28;20479;-68
2023/06/10 03:25:54;;;;;;;;;;;;;;;19.42;58.27;101413.03;4948884;28;20515;-69
2023/06/10 03:28:20;;;;;;;;;;;;;;;19.42;58.17;101413.03;4945679;28;20053;-69
2023/06/10 03:30:46;;;;;;;;;;;;;;;19.39;58.13;101413.47;4948955;28;20009;-69
2023/06/10 03:33:11;;;;;;;;;;;;;;;19.36;58.17;101414.69;4946889;28;20005;-69
2023/06/10 03:35:37;;;;;;;;;;;;;;;19.33;58.48;101415.13;4945291;28;19926;-69
2023/06/10 03:38:02;;;;;;;;;;;;;;;19.30;58.54;101417.41;4946742;28;20005;-68
2023/06/10 03:40:27;;;;;;;;;;;;;;;19.25;58.92;101418.06;4946925;28;20285;-68
2023/06/10 03:42:52;;;;;;;;;;;;;;;19.21;58.72;101422.22;4949801;28;19982;-69
2023/06/10 03:45:17;;;;;;;;;;;;;;;19.21;58.97;101421.41;4944112;28;19938;-68
2023/06/10 03:47:43;;;;;;;;;;;;;;;19.19;59.27;101418.94;4947870;28;20010;-68
2023/06/10 03:50:08;;;;;;;;;;;;;;;19.18;59.42;101426.19;4946547;28;19918;-68
2023/06/10 03:52:34;;;;;;;;;;;;;;;19.17;59.50;101426.38;4941980;28;20627;-69
2023/06/10 03:54:59;;;;;;;;;;;;;;;19.15;59.49;101431.16;4947929;28;19946;-68
2023/06/10 03:57:25;;;;;;;;;;;;;;;19.13;59.53;101425.16;4940549;28;20688;-69
2023/06/10 03:59:50;;;;;;;;;;;;;;;19.14;59.52;101429.50;4950589;28;19925;-69
2023/06/10 04:02:16;;;;;;;;;;;;;;;19.13;59.58;101426.00;4948063;28;19930;-69
2023/06/10 04:04:41;;;;;;;;;;;;;;;19.13;59.96;101427.88;4955242;28;20436;-69
2023/06/10 04:07:08;;;;;;;;;;;;;;;19.14;60.06;101433.03;4953776;28;19960;-68
2023/06/10 04:09:33;;;;;;;;;;;;;;;19.14;60.00;101424.13;4945956;28;19974;-68
2023/06/10 04:11:58;;;;;;;;;;;;;;;19.14;59.65;101427.66;4940553;28;19922;-68
2023/06/10 04:14:24;;;;;;;;;;;;;;;19.12;59.95;101428.91;4946026;28;19928;-69
2023/06/10 04:16:50;;;;;;;;;;;;;;;19.14;60.24;101429.50;4956860;28;19918;-69
2023/06/10 04:19:15;;;;;;;;;;;;;;;19.14;60.34;101430.34;4950363;28;19922;-68
2023/06/10 04:21:40;;;;;;;;;;;;;;;19.14;60.39;101432.19;4943911;28;20300;-68
2023/06/10 04:24:05;;;;;;;;;;;;;;;19.13;60.41;101436.75;4947651;28;20423;-68
2023/06/10 04:26:30;;;;;;;;;;;;;;;19.14;59.99;101434.91;4948439;28;19922;-69
2023/06/10 04:28:56;;;;;;;;;;;;;;;19.13;60.36;101436.75;4944663;28;19918;-68
2023/06/10 04:31:21;;;;;;;;;;;;;;;19.14;60.40;101434.91;4946197;28;19922;-68
2023/06/10 04:33:46;;;;;;;;;;;;;;;19.15;60.02;101441.94;4945004;28;19937;-68
2023/06/10 04:36:11;;;;;;;;;;;;;;;19.15;60.60;101450.84;4944643;28;20005;-68
2023/06/10 04:38:36;;;;;;;;;;;;;;;19.15;60.61;101452.69;4944800;28;19927;-68
2023/06/10 04:41:02;;;;;;;;;;;;;;;19.18;60.51;101454.97;4944434;28;19974;-68
2023/06/10 04:43:28;;;;;;;;;;;;;;;19.21;60.08;101448.34;4946617;28;19914;-67
2023/06/10 04:45:53;;;;;;;;;;;;;;;19.22;59.89;101450.81;4947444;28;20378;-67
2023/06/10 04:48:18;;;;;;;;;;;;;;;19.24;59.89;101451.41;4956259;28;19914;-68
2023/06/10 04:50:44;;;;;;;;;;;;;;;19.26;59.96;101452.03;4946489;28;20350;-67
2023/06/10 04:53:09;;;;;;;;;;;;;;;19.30;59.71;101453.25;4941276;28;19927;-68
2023/06/10 04:55:34;;;;;;;;;;;;;;;19.34;59.90;101451.78;4947611;28;20521;-68
2023/06/10 04:58:00;;;;;;;;;;;;;;;19.35;59.88;101458.00;4942670;28;20284;-68
2023/06/10 05:00:25;;;;;;;;;;;;;;;19.38;59.62;101453.03;4948699;28;19966;-68
2023/06/10 05:02:51;;;;;;;;;;;;;;;19.42;59.64;101456.97;4942714;28;19933;-68
2023/06/10 05:05:17;;;;;;;;;;;;;;;19.46;59.81;101460.88;4947877;28;19922;-68
2023/06/10 05:07:42;;;;;;;;;;;;;;;19.50;59.55;101451.31;4946384;28;19940;-68
2023/06/10 05:10:07;;;;;;;;;;;;;;;19.56;59.83;101451.53;4939846;28;19919;-68
2023/06/10 05:12:33;;;;;;;;;;;;;;;19.61;59.21;101451.69;4945897;28;19918;-68
2023/06/10 05:14:58;;;;;;;;;;;;;;;19.63;59.52;101450.44;4938039;28;19915;-68
2023/06/10 05:17:25;;;;;;;;;;;;;;;19.67;59.45;101456.25;4940673;28;19927;-68
2023/06/10 05:19:50;;;;;;;;;;;;;;;19.70;59.33;101455.81;4943501;28;19919;-68
2023/06/10 05:22:16;;;;;;;;;;;;;;;19.74;59.36;101455.16;4938127;28;20815;-68
2023/06/10 05:24:41;;;;;;;;;;;;;;;19.79;59.52;101454.50;4946500;28;19914;-68
2023/06/10 05:27:06;;;;;;;;;;;;;;;19.83;59.04;101458.44;4944488;28;19915;-68
2023/06/10 05:29:31;;;;;;;;;;;;;;;19.87;59.32;101459.66;4947738;28;19922;-68
2023/06/10 05:32:00;;;;;;;;;;;;;;;19.91;59.04;101458.16;4955922;28;19915;-68
2023/06/10 05:34:25;;;;;;;;;;;;;;;19.96;58.92;101455.66;4946858;28;20471;-68
2023/06/10 05:36:50;;;;;;;;;;;;;;;20.02;58.82;101440.47;4946695;28;20012;-68
2023/06/10 05:39:15;;;;;;;;;;;;;;;20.06;58.68;101450.59;4942087;28;19974;-68
2023/06/10 05:41:40;;;;;;;;;;;;;;;20.10;58.79;101451.81;4948909;28;20009;-68
2023/06/10 05:44:06;;;;;;;;;;;;;;;20.14;58.50;101460.28;4941835;28;19914;-68
2023/06/10 05:46:31;;;;;;;;;;;;;;;20.20;58.55;101459.41;4948067;28;19970;-68
2023/06/10 05:48:56;;;;;;;;;;;;;;;20.24;58.61;101449.88;4959030;28;20009;-68
2023/06/10 05:51:21;;;;;;;;;;;;;;;20.28;57.89;101461.88;4951960;28;19953;-68
2023/06/10 05:53:46;;;;;;;;;;;;;;;20.32;57.74;101456.84;4947626;28;19918;-68
2023/06/10 05:56:13;;;;;;;;;;;;;;;20.36;57.96;101463.47;4963707;28;19921;-68
2023/06/10 05:58:38;;;;;;;;;;;;;;;20.40;58.08;101465.53;4947506;28;19915;-68
2023/06/10 06:01:03;;;;;;;;;;;;;;;20.47;58.37;101459.25;4949118;28;19922;-67
2023/06/10 06:03:28;;;;;;;;;;;;;;;20.51;58.10;101460.44;4943690;28;19970;-68
2023/06/10 06:05:53;;;;;;;;;;;;;;;20.54;57.58;101460.84;4946754;28;19923;-68
2023/06/10 06:08:19;;;;;;;;;;;;;;;20.59;57.72;101468.28;4948527;28;20451;-67
2023/06/10 06:10:44;;;;;;;;;;;;;;;20.64;57.82;101471.13;4944399;28;19922;-68
2023/06/10 06:13:09;;;;;;;;;;;;;;;20.70;57.78;101471.06;4945527;28;20444;-67
2023/06/10 06:15:35;;;;;;;;;;;;;;;20.76;57.38;101469.34;4951203;28;19915;-68
2023/06/10 06:18:00;;;;;;;;;;;;;;;20.81;56.93;101468.69;4952224;28;19938;-67
2023/06/10 06:20:25;;;;;;;;;;;;;;;20.83;56.95;101463.91;4942713;28;19933;-67
2023/06/10 06:22:50;;;;;;;;;;;;;;;20.89;56.89;101471.09;4950231;28;19997;-67
2023/06/10 06:25:15;;;;;;;;;;;;;;;20.95;57.13;101468.34;4949997;28;19919;-68
2023/06/10 06:27:41;;;;;;;;;;;;;;;21.01;56.87;101466.59;4947891;28;19914;-68
2023/06/10 06:30:06;;;;;;;;;;;;;;;21.04;56.34;101466.16;4951658;28;20575;-67
2023/06/10 06:32:31;;;;;;;;;;;;;;;21.09;56.02;101469.00;4948672;28;19943;-67
2023/06/10 06:34:57;;;;;;;;;;;;;;;21.12;55.82;101456.94;4949481;28;19962;-68
2023/06/10 06:37:23;;;;;;;;;;;;;;;21.15;55.54;101468.13;4950451;28;20523;-67
2023/06/10 06:39:50;;;;;;;;;;;;;;;21.21;55.60;101466.41;4949567;28;20391;-68
2023/06/10 06:42:15;;;;;;;;;;;;;;;21.28;55.80;101464.47;4949516;28;20406;-68
2023/06/10 06:44:40;;;;;;;;;;;;;;;21.34;55.37;101467.09;4965467;28;20419;-68
2023/06/10 06:47:05;;;;;;;;;;;;;;;21.40;55.30;101469.97;4964973;28;20379;-68
2023/06/10 06:49:30;;;;;;;;;;;;;;;21.44;54.82;101471.97;4952605;28;19920;-68
2023/06/10 06:51:56;;;;;;;;;;;;;;;21.49;54.73;101468.59;4948511;28;20009;-67
2023/06/10 06:54:21;;;;;;;;;;;;;;;21.54;54.40;101469.53;4952096;28;19992;-68
2023/06/10 06:56:46;;;;;;;;;;;;;;;21.60;54.10;101471.34;4951793;28;19957;-68
2023/06/10 06:59:13;;;;;;;;;;;;;;;21.66;53.88;101469.59;4951318;28;19914;-68
2023/06/10 07:01:38;;;;;;;;;;;;;;;21.70;53.66;101473.50;4947688;28;20364;-68
2023/06/10 07:04:04;;;;;;;;;;;;;;;21.74;53.22;101463.88;4948425;28;20188;-68
2023/06/10 07:06:29;;;;;;;;;;;;;;;21.78;53.29;101477.78;4950115;28;19922;-68
2023/06/10 07:08:54;;;;;;;;;;;;;;;21.82;52.93;101473.53;4949388;28;20014;-68
2023/06/10 07:11:20;;;;;;;;;;;;;;;21.88;53.16;101473.44;4951268;28;19919;-68
2023/06/10 07:13:45;;;;;;;;;;;;;;;21.94;52.79;101475.22;4937805;28;19914;-68
2023/06/10 07:16:10;;;;;;;;;;;;;;;22.01;52.99;101477.03;4948680;28;20369;-67
2023/06/10 07:18:36;;;;;;;;;;;;;;;22.10;52.63;101478.38;4950954;28;19942;-68
2023/06/10 07:21:01;;;;;;;;;;;;;;;22.15;52.31;101478.50;4947138;28;19919;-67
2023/06/10 07:23:27;;;;;;;;;;;;;;;22.20;52.07;101484.03;4946528;28;19930;-68
2023/06/10 07:25:52;;;;;;;;;;;;;;;22.22;52.13;101480.03;4948914;28;19919;-68
2023/06/10 07:28:17;;;;;;;;;;;;;;;22.31;52.82;101483.25;4946351;28;20006;-68
2023/06/10 07:30:42;;;;;;;;;;;;;;;22.39;52.55;101493.72;4944218;28;19921;-67
2023/06/10 07:33:07;;;;;;;;;;;;;;;22.48;52.51;101495.03;4944994;28;19915;-68
2023/06/10 07:35:32;;;;;;;;;;;;;;;22.58;52.32;101488.22;4957156;28;19968;-67
2023/06/10 07:37:58;;;;;;;;;;;;;;;22.66;52.17;101493.28;4947527;28;19918;-68
2023/06/10 07:40:23;;;;;;;;;;;;;;;22.75;52.23;101500.00;4951882;28;19921;-68
2023/06/10 07:42:48;;;;;;;;;;;;;;;22.82;52.08;101484.47;4962668;28;19914;-68
2023/06/10 07:45:14;;;;;;;;;;;;;;;22.89;51.25;101495.22;4954214;28;19958;-68
2023/06/10 07:47:39;;;;;;;;;;;;;;;22.96;51.03;101490.50;4950308;28;19918;-68
2023/06/10 07:50:04;;;;;;;;;;;;;;;23.00;50.11;101492.50;4946709;28;19923;-68
2023/06/10 07:52:31;;;;;;;;;;;;;;;23.06;50.35;101490.72;4939313;28;20610;-68
2023/06/10 07:54:56;;;;;;;;;;;;;;;23.12;50.11;101501.41;4947264;28;19926;-68
2023/06/10 07:57:21;;;;;;;;;;;;;;;23.19;50.07;101487.75;4948770;28;20039;-68
2023/06/10 07:59:46;;;;;;;;;;;;;;;23.28;49.92;101499.06;4948150;28;19926;-68
2023/06/10 08:02:11;;;;;;;;;;;;;;;23.34;49.72;101495.38;4944160;28;19922;-68
2023/06/10 08:04:36;;;;;;;;;;;;;;;23.40;49.36;101497.13;4945631;28;19919;-68
2023/06/10 08:07:02;;;;;;;;;;;;;;;23.51;49.70;101493.59;4949972;28;19918;-68
2023/06/10 08:09:27;;;;;;;;;;;;;;;23.63;49.53;101488.13;4938541;28;20002;-68
2023/06/10 08:11:53;;;;;;;;;;;;;;;23.72;48.90;101490.25;4944241;28;19921;-68
2023/06/10 08:14:18;;;;;;;;;;;;;;;23.80;48.12;101491.75;4945270;28;19918;-68
2023/06/10 08:16:43;;;;;;;;;;;;;;;23.90;48.55;101491.91;4946618;28;19934;-68
2023/06/10 08:19:09;;;;;;;;;;;;;;;23.99;48.00;101489.63;4949262;28;20027;-68
2023/06/10 08:21:34;;;;;;;;;;;;;;;24.06;46.98;101491.13;4949644;28;19930;-68
2023/06/10 08:23:59;;;;;;;;;;;;;;;24.14;47.15;101494.50;4943126;28;19915;-68
2023/06/10 08:26:25;;;;;;;;;;;;;;;24.24;47.09;101492.78;4953649;28;19919;-67
2023/06/10 08:28:50;;;;;;;;;;;;;;;24.34;46.36;101494.91;4950629;28;19925;-68
2023/06/10 08:31:15;;;;;;;;;;;;;;;24.42;46.54;101493.66;4952887;28;20041;-68
2023/06/10 08:33:41;;;;;;;;;;;;;;;24.53;47.01;101490.84;4944017;28;19922;-68
2023/06/10 08:36:06;;;;;;;;;;;;;;;24.63;46.39;101499.19;4940430;28;19918;-68
2023/06/10 08:38:31;;;;;;;;;;;;;;;24.71;45.48;101490.59;4945296;28;19914;-68
2023/06/10 08:41:00;;;;;;;;;;;;;;;24.82;45.71;101499.72;4944486;28;19985;-68
2023/06/10 08:43:32;;;;;;;;;;;;;;;24.95;45.08;101495.84;4944635;28;19934;-68
2023/06/10 08:45:59;;;;;;;;;;;;;;;25.10;45.41;101500.69;4944404;28;20388;-68
2023/06/10 08:48:26;;;;;;;;;;;;;;;25.24;45.28;101493.84;4940376;28;19961;-68
2023/06/10 08:50:52;;;;;;;;;;;;;;;25.36;44.90;101494.50;4949889;28;19970;-69
2023/06/10 08:53:18;;;;;;;;;;;;;;;25.40;44.08;101495.66;4942407;28;19934;-68
2023/06/10 08:55:46;;;;;;;;;;;;;;;25.46;43.81;101499.28;4944534;28;19915;-68
2023/06/10 08:58:12;;;;;;;;;;;;;;;25.54;43.98;101496.94;4936956;28;19966;-68
2023/06/10 09:00:38;;;;;;;;;;;;;;;25.63;43.84;101494.56;4948817;28;19989;-69
2023/06/10 09:03:04;;;;;;;;;;;;;;;25.72;43.42;101497.69;4947895;28;20292;-69
2023/06/10 09:05:29;;;;;;;;;;;;;;;25.84;43.11;101491.03;4951046;28;19921;-68
2023/06/10 09:07:57;;;;;;;;;;;;;;;25.97;43.67;101488.97;4946727;28;20348;-69
2023/06/10 09:10:22;;;;;;;;;;;;;;;26.15;43.44;101500.31;4949703;28;20395;-69
2023/06/10 09:12:47;;;;;;;;;;;;;;;26.39;42.77;101489.13;4948513;28;19923;-68
2023/06/10 09:15:17;;;;;;;;;;;;;;;26.62;41.90;101493.38;4948721;28;21289;-68
2023/06/10 09:17:42;;;;;;;;;;;;;;;26.78;42.43;101495.94;4946237;28;19919;-68
2023/06/10 09:20:08;;;;;;;;;;;;;;;26.93;41.79;101487.06;4954937;28;19925;-68
2023/06/10 09:22:33;;;;;;;;;;;;;;;27.10;41.42;101493.16;4947181;28;19918;-69
2023/06/10 09:25:07;;;;;;;;;;;;;;;27.23;41.19;101491.88;4966955;28;19969;-69
2023/06/10 09:27:32;;;;;;;;;;;;;;;27.29;41.21;101490.81;4950980;28;19914;-68
2023/06/10 09:29:58;;;;;;;;;;;;;;;27.32;39.53;101492.16;4945639;28;19978;-68
2023/06/10 09:32:23;;;;;;;;;;;;;;;27.38;39.44;101488.38;4948912;28;19919;-69
2023/06/10 09:34:50;;;;;;;;;;;;;;;27.54;39.51;101494.72;4950005;28;19922;-68
2023/06/10 09:37:22;;;;;;;;;;;;;;;27.59;39.89;101490.09;4945073;28;19915;-69
2023/06/10 09:40:07;;;;;;;;;;;;;;;27.60;40.40;101485.44;4946121;28;19915;-69
2023/06/10 09:42:34;;;;;;;;;;;;;;;27.59;39.23;101490.09;4946906;28;20443;-68
2023/06/10 09:44:59;;;;;;;;;;;;;;;27.69;38.83;101489.31;4952204;28;19926;-69
2023/06/10 09:47:24;;;;;;;;;;;;;;;27.75;39.27;101485.50;4949011;28;19929;-69
2023/06/10 09:49:50;;;;;;;;;;;;;;;27.92;39.45;101488.00;4949804;28;19973;-68
2023/06/10 09:52:23;;;;;;;;;;;;;;;28.04;39.45;101492.13;4947393;28;19925;-69
2023/06/10 09:54:48;;;;;;;;;;;;;;;28.14;38.70;101498.69;4956461;28;20291;-69
2023/06/10 09:57:14;;;;;;;;;;;;;;;28.20;38.79;101482.03;4953015;28;19918;-69
2023/06/10 09:59:39;;;;;;;;;;;;;;;28.25;38.64;101493.00;4943556;28;19966;-69
2023/06/10 10:02:04;;;;;;;;;;;;;;;28.28;38.51;101477.97;4946469;28;19966;-69
2023/06/10 10:04:30;;;;;;;;;;;;;;;28.44;38.03;101482.34;4949799;28;19927;-69
2023/06/10 10:06:56;;;;;;;;;;;;;;;28.57;38.09;101480.94;4958640;28;19960;-69
2023/06/10 10:09:21;;;;;;;;;;;;;;;28.64;38.19;101478.78;4952478;28;19989;-69
2023/06/10 10:11:47;;;;;;;;;;;;;;;28.66;38.47;101480.13;4961640;28;20380;-69
2023/06/10 10:14:13;;;;;;;;;;;;;;;28.68;38.63;101475.22;4960221;28;19930;-69
2023/06/10 10:16:42;;;;;;;;;;;;;;;28.73;38.79;101473.56;4950999;28;20315;-69
2023/06/10 10:19:11;;;;;;;;;;;;;;;28.84;38.53;101472.44;4940933;28;19915;-69
2023/06/10 10:21:42;;;;;;;;;;;;;;;28.85;38.17;101468.63;4950286;28;20506;-69
2023/06/10 10:24:14;;;;;;;;;;;;;;;28.96;38.71;101467.53;4949100;28;19914;-69
2023/06/10 10:26:39;;;;;;;;;;;;;;;29.07;38.19;101469.13;4950280;28;20364;-68
2023/06/10 10:29:08;;;;;;;;;;;;;;;29.13;38.44;101467.16;4940659;28;20021;-69
2023/06/10 10:31:35;;;;;;;;;;;;;;;29.18;37.50;101467.97;4953348;28;20022;-69
2023/06/10 10:34:02;;;;;;;;;;;;;;;29.17;37.63;101462.78;4947970;28;19918;-69
2023/06/10 10:36:27;;;;;;;;;;;;;;;29.17;37.20;101469.06;4949237;28;19918;-69
2023/06/10 10:38:53;;;;;;;;;;;;;;;29.32;36.62;101456.44;4952607;28;19925;-69
2023/06/10 10:41:20;;;;;;;;;;;;;;;29.32;36.81;101461.91;4948048;28;19918;-69
2023/06/10 10:43:46;;;;;;;;;;;;;;;29.33;37.17;101452.59;4961013;28;20392;-70
2023/06/10 10:46:12;;;;;;;;;;;;;;;29.47;37.20;101459.09;4946295;28;20000;-69
2023/06/10 10:48:38;;;;;;;;;;;;;;;29.56;36.99;101454.69;4941670;28;19922;-69
2023/06/10 10:51:03;;;;;;;;;;;;;;;29.74;36.68;101456.75;4949515;28;20017;-69
2023/06/10 10:53:29;;;;;;;;;;;;;;;29.91;35.98;101459.94;4945738;28;19926;-69
2023/06/10 10:55:58;;;;;;;;;;;;;;;30.02;34.84;101440.66;4944978;28;20332;-69
2023/06/10 10:58:26;;;;;;;;;;;;;;;29.97;34.00;101454.41;4947176;28;19929;-69
2023/06/10 11:00:51;;;;;;;;;;;;;;;29.96;34.02;101448.13;4945399;28;19929;-69
2023/06/10 11:03:17;;;;;;;;;;;;;;;30.04;35.27;101446.72;4948111;28;20272;-70
2023/06/10 11:05:48;;;;;;;;;;;;;;;30.07;34.23;101446.97;4943172;28;19926;-70
2023/06/10 11:08:34;;;;;;;;;;;;;;;30.24;33.87;101440.25;4938014;28;19965;-70
2023/06/10 11:10:59;;;;;;;;;;;;;;;30.35;33.14;101437.13;4937059;28;20005;-70
2023/06/10 11:13:26;;;;;;;;;;;;;;;30.30;32.79;101439.91;4944586;28;20507;-70
2023/06/10 11:15:51;;;;;;;;;;;;;;;30.33;32.91;101435.78;4942849;28;20396;-71
2023/06/10 11:18:29;;;;;;;;;;;;;;;30.40;32.06;101434.34;4943850;28;19919;-71
2023/06/10 11:20:55;;;;;;;;;;;;;;;30.41;32.01;101438.72;4940567;28;19977;-71
2023/06/10 11:23:32;;;;;;;;;;;;;;;30.45;32.80;101436.22;4942905;28;20004;-71
2023/06/10 11:26:10;;;;;;;;;;;;;;;30.52;33.19;101432.03;4944928;28;19922;-72
2023/06/10 11:28:36;;;;;;;;;;;;;;;30.63;32.41;101431.94;4941057;28;19923;-71
2023/06/10 11:31:01;;;;;;;;;;;;;;;30.68;32.85;101429.16;4947321;28;19924;-71
2023/06/10 11:33:26;;;;;;;;;;;;;;;30.71;32.47;101425.84;4940130;28;19922;-70
2023/06/10 11:35:51;;;;;;;;;;;;;;;30.69;32.50;101428.06;4943256;28;20332;-71
2023/06/10 11:38:18;;;;;;;;;;;;;;;30.66;32.18;101423.16;4937748;28;20388;-71
2023/06/10 11:40:50;;;;;;;;;;;;;;;30.67;31.86;101414.63;4942060;28;19937;-71
2023/06/10 11:43:16;;;;;;;;;;;;;;;30.68;31.59;101426.44;4942110;28;19922;-71
2023/06/10 11:45:41;;;;;;;;;;;;;;;30.62;32.29;101433.88;4941768;28;20301;-71
2023/06/10 11:48:06;;;;;;;;;;;;;;;30.60;32.11;101429.75;4936507;28;19915;-71
2023/06/10 11:50:32;;;;;;;;;;;;;;;30.62;31.78;101414.66;4940051;28;19965;-71
2023/06/10 11:52:58;;;;;;;;;;;;;;;30.60;32.23;101422.38;4956149;28;20376;-70
2023/06/10 11:55:24;;;;;;;;;;;;;;;30.64;32.14;101414.38;4951304;28;20020;-71
2023/06/10 11:57:57;;;;;;;;;;;;;;;30.66;32.72;101415.75;4947000;28;19930;-71
2023/06/10 12:00:22;;;;;;;;;;;;;;;30.65;32.51;101418.75;4944070;28;19933;-70
2023/06/10 12:02:54;;;;;;;;;;;;;;;30.65;32.91;101413.28;4944762;28;19926;-70
2023/06/10 12:05:19;;;;;;;;;;;;;;;30.73;32.96;101410.72;4957293;28;19977;-70
2023/06/10 12:07:44;;;;;;;;;;;;;;;30.77;32.81;101413.69;4943348;28;19926;-70
2023/06/10 12:10:09;;;;;;;;;;;;;;;30.85;33.03;101399.34;4949342;28;20375;-71
2023/06/10 12:12:36;;;;;;;;;;;;;;;30.95;33.02;101401.16;4945636;28;20265;-70
2023/06/10 12:15:04;;;;;;;;;;;;;;;31.04;32.42;101397.44;4947146;28;19957;-72
2023/06/10 12:17:29;;;;;;;;;;;;;;;31.05;32.22;101401.00;4946739;28;20407;-72
2023/06/10 12:19:55;;;;;;;;;;;;;;;31.00;31.72;101399.16;4947720;28;20576;-71
2023/06/10 12:22:20;;;;;;;;;;;;;;;31.00;31.58;101401.91;4944170;28;20423;-71
2023/06/10 12:25:03;;;;;;;;;;;;;;;31.07;32.10;101398.78;4930975;28;19941;-71
2023/06/10 12:27:31;;;;;;;;;;;;;;;31.01;31.91;101395.31;4942270;28;20008;-72
2023/06/10 12:30:04;;;;;;;;;;;;;;;30.99;31.70;101391.22;4953491;28;19914;-72